createdAt,value
2022-09-23T00:02:33.693Z,5.57
2022-09-23T00:05:40.452Z,5.66
2022-09-23T00:08:46.811Z,5.95
2022-09-23T00:11:53.636Z,6.20
2022-09-23T00:15:01.106Z,6.17
2022-09-23T00:18:08.271Z,6.15
2022-09-23T00:21:15.709Z,6.29
2022-09-23T00:24:21.671Z,6.34
2022-09-23T00:27:29.159Z,6.82
2022-09-23T00:30:36.949Z,6.26
2022-09-23T00:33:43.179Z,6.63
2022-09-23T00:36:49.234Z,6.13
2022-09-23T00:39:55.667Z,6.42
2022-09-23T00:43:02.162Z,6.44
2022-09-23T00:46:11.436Z,6.08
2022-09-23T00:49:26.247Z,6.39
2022-09-23T00:52:33.672Z,6.65
2022-09-23T00:55:43.542Z,6.66
2022-09-23T00:58:52.218Z,6.44
2022-09-23T01:02:01.568Z,6.24
2022-09-23T01:05:09.386Z,6.15
2022-09-23T01:08:16.567Z,6.11
2022-09-23T01:11:38.165Z,6.14
2022-09-23T01:14:50.948Z,6.24
2022-09-23T01:18:07.504Z,5.92
2022-09-23T01:21:22.965Z,5.63
2022-09-23T01:24:49.097Z,5.78
2022-09-23T01:28:20.982Z,5.56
2022-09-23T01:31:35.374Z,5.30
2022-09-23T01:34:48.735Z,4.67
2022-09-23T01:38:01.395Z,4.73
2022-09-23T01:41:16.059Z,4.57
2022-09-23T01:44:30.603Z,5.21
2022-09-23T01:47:43.738Z,5.42
2022-09-23T01:50:58.284Z,5.42
2022-09-23T01:54:09.971Z,5.37
2022-09-23T01:57:19.465Z,5.97
2022-09-23T02:00:28.328Z,5.83
2022-09-23T02:03:42.962Z,5.73
2022-09-23T02:06:53.933Z,5.06
2022-09-23T02:10:05.326Z,5.03
2022-09-23T02:13:18.290Z,4.81
2022-09-23T02:16:31.640Z,4.65
2022-09-23T02:19:44.293Z,4.79
2022-09-23T02:22:58.000Z,4.81
2022-09-23T02:26:09.883Z,4.53
2022-09-23T02:29:22.080Z,5.01
2022-09-23T02:32:35.790Z,5.09
2022-09-23T02:35:54.521Z,4.65
2022-09-23T02:39:05.140Z,4.71
2022-09-23T02:42:16.551Z,4.48
2022-09-23T02:45:22.761Z,5.39
2022-09-23T02:48:33.414Z,5.30
2022-09-23T02:51:41.676Z,5.16
2022-09-23T02:54:47.958Z,5.13
2022-09-23T02:57:54.416Z,5.27
2022-09-23T03:01:07.997Z,5.18
2022-09-23T03:04:21.516Z,5.15
2022-09-23T03:07:37.934Z,5.48
2022-09-23T03:10:54.952Z,5.89
2022-09-23T03:14:18.184Z,5.32
2022-09-23T03:17:30.803Z,5.60
2022-09-23T03:20:42.944Z,4.71
2022-09-23T03:23:51.806Z,4.88
2022-09-23T03:27:02.053Z,4.76
2022-09-23T03:30:11.943Z,4.17
2022-09-23T03:33:19.846Z,4.14
2022-09-23T03:36:48.052Z,4.24
2022-09-23T03:40:02.316Z,4.74
2022-09-23T03:43:09.142Z,4.89
2022-09-23T03:46:18.572Z,4.76
2022-09-23T03:49:28.683Z,3.79
2022-09-23T03:52:35.100Z,4.63
2022-09-23T03:55:42.772Z,4.49
2022-09-23T03:58:48.992Z,4.19
2022-09-23T04:01:55.732Z,4.10
2022-09-23T04:05:01.863Z,3.76
2022-09-23T04:08:08.212Z,4.28
2022-09-23T04:11:16.154Z,4.24
2022-09-23T04:14:23.434Z,4.75
2022-09-23T04:17:30.304Z,5.03
2022-09-23T04:20:36.596Z,4.80
2022-09-23T04:23:43.103Z,4.74
2022-09-23T04:26:53.905Z,4.03
2022-09-23T04:29:59.902Z,4.45
2022-09-23T04:33:06.533Z,4.28
2022-09-23T04:36:12.995Z,4.09
2022-09-23T04:39:19.648Z,4.41
2022-09-23T04:42:29.823Z,4.32
2022-09-23T04:45:36.582Z,4.55
2022-09-23T04:48:43.420Z,4.86
2022-09-23T04:51:49.474Z,4.16
2022-09-23T04:54:55.682Z,4.02
2022-09-23T04:58:03.541Z,4.59
2022-09-23T05:01:11.525Z,4.25
2022-09-23T05:04:17.666Z,4.54
2022-09-23T05:07:24.603Z,4.34
2022-09-23T05:10:31.264Z,4.67
2022-09-23T05:13:38.879Z,4.88
2022-09-23T05:16:44.924Z,5.07
2022-09-23T05:19:51.169Z,5.05
2022-09-23T05:22:57.388Z,4.98
2022-09-23T05:26:06.062Z,5.36
2022-09-23T05:29:13.407Z,4.97
2022-09-23T05:32:19.386Z,5.18
2022-09-23T05:35:25.819Z,5.46
2022-09-23T05:38:32.871Z,5.12
2022-09-23T05:41:40.396Z,4.85
2022-09-23T05:44:48.355Z,5.28
2022-09-23T05:47:54.331Z,5.53
2022-09-23T05:51:01.375Z,5.87
2022-09-23T05:54:08.460Z,5.92
2022-09-23T05:57:15.090Z,5.99
2022-09-23T06:00:22.610Z,6.25
2022-09-23T06:03:28.964Z,6.02
2022-09-23T06:06:36.480Z,6.00
2022-09-23T06:09:43.496Z,6.35
2022-09-23T06:12:50.148Z,6.76
2022-09-23T06:16:00.489Z,5.47
2022-09-23T06:19:07.213Z,6.29
2022-09-23T06:22:16.968Z,5.94
2022-09-23T06:25:23.295Z,5.46
2022-09-23T06:28:32.301Z,5.16
2022-09-23T06:31:41.242Z,6.13
2022-09-23T06:34:51.861Z,6.90
2022-09-23T06:37:58.426Z,7.26
2022-09-23T06:41:04.792Z,7.74
2022-09-23T06:44:11.054Z,7.44
2022-09-23T06:47:18.538Z,6.78
2022-09-23T06:50:25.859Z,6.72
2022-09-23T06:53:33.196Z,7.16
2022-09-23T06:56:39.928Z,6.96
2022-09-23T06:59:46.156Z,7.94
2022-09-23T07:02:54.905Z,7.66
2022-09-23T07:06:02.223Z,8.31
2022-09-23T07:09:09.861Z,7.35
2022-09-23T07:12:16.355Z,8.93
2022-09-23T07:15:22.697Z,9.36
2022-09-23T07:18:36.479Z,9.47
2022-09-23T07:21:43.000Z,9.36
2022-09-23T07:24:49.200Z,10.02
2022-09-23T07:27:57.780Z,10.04
2022-09-23T07:31:07.755Z,10.63
2022-09-23T07:34:15.410Z,11.39
2022-09-23T07:37:21.565Z,11.58
2022-09-23T07:40:28.225Z,10.76
2022-09-23T07:43:34.417Z,10.33
2022-09-23T07:46:41.149Z,10.58
2022-09-23T07:49:48.614Z,11.48
2022-09-23T07:52:54.450Z,11.36
2022-09-23T07:56:00.764Z,11.20
2022-09-23T07:59:09.115Z,11.86
2022-09-23T08:02:16.576Z,11.56
2022-09-23T08:05:24.440Z,11.92
2022-09-23T08:08:53.158Z,12.31
2022-09-23T08:12:00.231Z,12.52
2022-09-23T08:15:07.307Z,12.07
2022-09-23T08:18:13.711Z,13.08
2022-09-23T08:21:22.712Z,12.85
2022-09-23T08:24:32.275Z,12.85
2022-09-23T08:27:39.352Z,13.57
2022-09-23T08:30:45.650Z,13.72
2022-09-23T08:33:55.997Z,13.31
2022-09-23T08:37:03.649Z,13.73
2022-09-23T08:40:10.740Z,14.02
2022-09-23T08:43:25.662Z,13.52
2022-09-23T08:46:36.457Z,14.35
2022-09-23T08:49:52.144Z,14.06
2022-09-23T08:53:03.495Z,14.83
2022-09-23T08:56:15.701Z,14.90
2022-09-23T08:59:28.893Z,14.57
2022-09-23T09:02:37.461Z,14.50
2022-09-23T09:05:53.606Z,14.75
2022-09-23T09:09:03.972Z,14.55
2022-09-23T09:12:16.965Z,14.84
2022-09-23T09:15:26.765Z,15.08
2022-09-23T09:18:36.536Z,15.34
2022-09-23T09:21:46.401Z,15.28
2022-09-23T09:25:02.201Z,15.76
2022-09-23T09:28:15.828Z,15.35
2022-09-23T09:31:28.667Z,15.52
2022-09-23T09:34:41.548Z,15.74
2022-09-23T09:37:49.265Z,15.62
2022-09-23T09:41:01.359Z,15.27
2022-09-23T09:44:20.591Z,15.67
2022-09-23T09:47:37.058Z,15.47
2022-09-23T09:50:47.273Z,16.04
2022-09-23T09:53:53.932Z,15.97
2022-09-23T09:57:06.195Z,15.39
2022-09-23T10:00:35.622Z,15.44
2022-09-23T10:03:44.886Z,15.66
2022-09-23T10:07:07.495Z,15.67
2022-09-23T10:10:32.231Z,16.21
2022-09-23T10:13:40.045Z,16.20
2022-09-23T10:16:49.013Z,15.99
2022-09-23T10:20:00.985Z,15.99
2022-09-23T10:23:09.969Z,15.82
2022-09-23T10:26:18.652Z,16.03
2022-09-23T10:29:30.457Z,16.58
2022-09-23T10:32:38.746Z,16.36
2022-09-23T10:35:57.326Z,16.46
2022-09-23T10:39:19.248Z,16.01
2022-09-23T10:42:52.192Z,16.43
2022-09-23T10:46:22.609Z,16.11
2022-09-23T10:49:50.010Z,16.02
2022-09-23T10:53:07.642Z,16.52
2022-09-23T10:56:26.950Z,16.28
2022-09-23T10:59:49.263Z,16.36
2022-09-23T11:03:25.046Z,16.80
2022-09-23T11:06:41.973Z,16.21
2022-09-23T11:10:45.598Z,17.31
2022-09-23T11:14:15.935Z,17.15
2022-09-23T11:17:46.823Z,16.67
2022-09-23T11:21:07.327Z,17.22
2022-09-23T11:24:35.653Z,16.86
2022-09-23T11:27:57.163Z,16.52
2022-09-23T11:31:15.207Z,17.36
2022-09-23T11:34:51.199Z,16.89
2022-09-23T11:38:07.630Z,16.74
2022-09-23T11:41:20.336Z,17.38
2022-09-23T11:44:31.360Z,16.66
2022-09-23T11:47:44.728Z,17.19
2022-09-23T11:50:58.999Z,17.33
2022-09-23T11:54:16.156Z,17.78
2022-09-23T11:57:45.910Z,17.27
2022-09-23T12:01:01.643Z,17.54
2022-09-23T12:04:20.459Z,17.78
2022-09-23T12:07:34.539Z,16.77
2022-09-23T12:10:53.025Z,16.76
2022-09-23T12:14:13.908Z,16.45
2022-09-23T12:17:39.829Z,17.29
2022-09-23T12:21:48.674Z,17.54
2022-09-23T12:24:56.150Z,17.70
2022-09-23T12:28:07.635Z,17.34
2022-09-23T12:31:17.234Z,17.57
2022-09-23T12:34:30.320Z,16.42
2022-09-23T12:37:39.338Z,17.48
2022-09-23T12:40:45.778Z,17.35
2022-09-23T12:43:56.437Z,17.47
2022-09-23T12:47:39.222Z,17.92
2022-09-23T12:50:52.159Z,17.44
2022-09-23T12:54:22.314Z,17.53
2022-09-23T12:57:42.916Z,17.27
2022-09-23T13:01:08.541Z,17.69
2022-09-23T13:04:49.372Z,17.90
2022-09-23T13:08:02.080Z,18.05
2022-09-23T13:11:17.548Z,17.90
2022-09-23T13:14:27.761Z,17.73
2022-09-23T13:17:38.937Z,17.91
2022-09-23T13:20:47.075Z,17.71
2022-09-23T13:24:20.977Z,16.89
2022-09-23T13:27:31.865Z,16.52
2022-09-23T13:30:49.884Z,17.21
2022-09-23T13:34:04.229Z,17.20
2022-09-23T13:37:22.730Z,17.41
2022-09-23T13:40:31.827Z,17.08
2022-09-23T13:43:42.676Z,17.00
2022-09-23T13:46:51.578Z,17.80
2022-09-23T13:49:59.416Z,17.02
2022-09-23T13:53:09.888Z,17.09
2022-09-23T13:56:17.175Z,17.39
2022-09-23T13:59:27.785Z,17.23
2022-09-23T14:06:02.423Z,17.03
2022-09-23T14:09:08.839Z,16.73
2022-09-23T14:12:15.583Z,16.87
2022-09-23T14:15:23.486Z,17.06
2022-09-23T14:18:35.180Z,16.84
2022-09-23T14:21:43.062Z,17.79
2022-09-23T14:24:50.501Z,19.63
2022-09-23T14:28:00.335Z,20.50
2022-09-23T14:31:07.202Z,20.30
2022-09-23T14:34:42.496Z,20.16
2022-09-23T14:38:10.116Z,19.41
2022-09-23T14:41:24.904Z,17.78
2022-09-23T14:44:33.362Z,16.12
2022-09-23T14:47:44.412Z,16.07
2022-09-23T14:50:55.659Z,15.61
2022-09-23T14:54:26.301Z,15.45
2022-09-23T14:57:32.570Z,15.19
2022-09-23T15:00:39.003Z,15.17
2022-09-23T15:03:48.445Z,15.00
2022-09-23T15:06:57.244Z,14.86
2022-09-23T15:10:07.880Z,14.77
2022-09-23T15:13:17.898Z,14.84
2022-09-23T15:16:28.503Z,14.76
2022-09-23T15:19:37.481Z,14.44
2022-09-23T15:22:48.460Z,14.46
2022-09-23T15:25:56.102Z,14.43
2022-09-23T15:29:02.560Z,14.30
2022-09-23T15:32:09.208Z,14.42
2022-09-23T15:35:16.545Z,14.21
2022-09-23T15:38:23.307Z,14.08
2022-09-23T15:41:33.131Z,13.59
2022-09-23T15:44:39.642Z,13.73
2022-09-23T15:47:46.424Z,13.23
2022-09-23T15:50:54.480Z,13.42
2022-09-23T15:54:00.821Z,13.08
2022-09-23T15:57:08.564Z,12.90
2022-09-23T16:00:16.185Z,12.83
2022-09-23T16:03:23.213Z,12.79
2022-09-23T16:06:29.663Z,12.66
2022-09-23T16:09:36.101Z,12.59
2022-09-23T16:12:43.668Z,12.63
2022-09-23T16:15:49.795Z,12.74
2022-09-23T16:18:56.767Z,12.39
2022-09-23T16:22:03.464Z,12.53
2022-09-23T16:25:12.744Z,12.57
2022-09-23T16:28:20.428Z,12.44
2022-09-23T16:31:29.691Z,12.37
2022-09-23T16:34:36.397Z,12.31
2022-09-23T16:37:47.015Z,12.29
2022-09-23T16:40:53.582Z,12.09
2022-09-23T16:44:02.256Z,12.07
2022-09-23T16:47:08.729Z,11.79
2022-09-23T16:50:17.084Z,11.42
2022-09-23T16:53:23.391Z,11.32
2022-09-23T16:56:31.062Z,10.99
2022-09-23T16:59:52.558Z,10.73
2022-09-23T17:03:16.492Z,11.08
2022-09-23T17:06:25.139Z,10.73
2022-09-23T17:09:31.476Z,10.46
2022-09-23T17:12:38.011Z,10.55
2022-09-23T17:15:45.783Z,10.43
2022-09-23T17:18:52.267Z,10.49
2022-09-23T17:21:58.691Z,10.07
2022-09-23T17:25:05.340Z,10.22
2022-09-23T17:28:11.658Z,10.24
2022-09-23T17:31:20.133Z,10.24
2022-09-23T17:34:28.992Z,10.18
2022-09-23T17:37:35.488Z,10.23
2022-09-23T17:40:42.352Z,9.88
2022-09-23T17:43:48.579Z,9.81
2022-09-23T17:46:56.098Z,9.71
2022-09-23T17:50:02.282Z,9.66
2022-09-23T17:53:08.555Z,9.74
2022-09-23T17:56:18.460Z,9.65
2022-09-23T17:59:24.312Z,9.43
2022-09-23T18:02:32.033Z,9.28
2022-09-23T18:05:38.419Z,9.50
2022-09-23T18:08:46.454Z,9.24
2022-09-23T18:11:52.635Z,9.18
2022-09-23T18:14:58.901Z,9.13
2022-09-23T18:18:07.885Z,9.07
2022-09-23T18:21:14.135Z,8.75
2022-09-23T18:24:31.816Z,8.53
2022-09-23T18:27:39.310Z,9.04
2022-09-23T18:30:54.032Z,9.13
2022-09-23T18:34:02.683Z,8.81
2022-09-23T18:37:15.617Z,8.49
2022-09-23T18:40:22.478Z,8.16
2022-09-23T18:43:37.519Z,8.49
2022-09-23T18:46:46.577Z,9.01
2022-09-23T18:50:11.630Z,8.93
2022-09-23T18:53:17.770Z,8.43
2022-09-23T18:56:24.683Z,7.99
2022-09-23T18:59:33.626Z,8.15
2022-09-23T19:02:39.830Z,8.35
2022-09-23T19:05:47.574Z,8.60
2022-09-23T19:08:55.331Z,8.22
2022-09-23T19:12:02.528Z,7.71
2022-09-23T19:15:09.720Z,7.91
2022-09-23T19:18:16.847Z,8.19
2022-09-23T19:21:24.832Z,8.22
2022-09-23T19:24:30.860Z,8.09
2022-09-23T19:27:37.296Z,8.12
2022-09-23T19:30:43.544Z,8.16
2022-09-23T19:33:56.675Z,8.03
2022-09-23T19:37:05.330Z,8.03
2022-09-23T19:40:12.120Z,7.20
2022-09-23T19:43:18.344Z,7.12
2022-09-23T19:46:24.593Z,6.62
2022-09-23T19:49:31.188Z,7.13
2022-09-23T19:52:38.744Z,6.94
2022-09-23T19:55:45.028Z,6.74
2022-09-23T19:58:54.431Z,6.27
2022-09-23T20:02:00.968Z,6.53
2022-09-23T20:05:09.912Z,6.60
2022-09-23T20:08:19.379Z,6.67
2022-09-23T20:11:28.362Z,6.33
2022-09-23T20:14:35.111Z,6.42
2022-09-23T20:17:41.522Z,5.43
2022-09-23T20:20:55.387Z,6.20
2022-09-23T20:24:05.821Z,6.25
2022-09-23T20:27:12.458Z,6.30
2022-09-23T20:30:19.292Z,5.74
2022-09-23T20:33:25.373Z,6.09
2022-09-23T20:36:32.346Z,5.90
2022-09-23T20:39:40.056Z,5.81
2022-09-23T20:42:49.199Z,6.01
2022-09-23T20:45:56.875Z,5.48
2022-09-23T20:49:03.796Z,5.40
2022-09-23T20:52:10.414Z,5.27
2022-09-23T20:55:18.267Z,5.53
2022-09-23T20:58:29.265Z,5.78
2022-09-23T21:01:36.761Z,5.60
2022-09-23T21:04:42.999Z,5.21
2022-09-23T21:07:49.259Z,5.36
2022-09-23T21:10:58.246Z,6.32
2022-09-23T21:14:04.386Z,6.48
2022-09-23T21:17:10.441Z,6.42
2022-09-23T21:20:16.955Z,6.53
2022-09-23T21:23:26.674Z,6.52
2022-09-23T21:26:34.237Z,6.59
2022-09-23T21:29:40.790Z,6.47
2022-09-23T21:32:47.011Z,6.63
2022-09-23T21:35:55.963Z,6.58
2022-09-23T21:39:03.163Z,6.55
2022-09-23T21:42:12.157Z,6.36
2022-09-23T21:45:18.736Z,6.32
2022-09-23T21:48:25.509Z,6.32
2022-09-23T21:51:38.836Z,4.94
2022-09-23T21:54:45.234Z,4.70
2022-09-23T21:57:52.895Z,4.98
2022-09-23T22:00:59.108Z,4.50
2022-09-23T22:04:08.619Z,4.07
2022-09-23T22:07:14.991Z,3.93
2022-09-23T22:10:21.240Z,4.97
2022-09-23T22:13:28.966Z,4.54
2022-09-23T22:16:36.063Z,3.95
2022-09-23T22:19:46.688Z,3.50
2022-09-23T22:22:53.312Z,3.64
2022-09-23T22:26:03.210Z,3.73
2022-09-23T22:29:31.602Z,3.87
2022-09-23T22:32:46.256Z,4.17
2022-09-23T22:35:52.637Z,4.18
2022-09-23T22:39:02.159Z,3.66
2022-09-23T22:42:08.659Z,3.57
2022-09-23T22:45:16.408Z,3.94
2022-09-23T22:48:22.863Z,4.30
2022-09-23T22:51:29.584Z,4.16
2022-09-23T22:54:36.914Z,4.81
2022-09-23T22:57:43.225Z,5.17
2022-09-23T23:00:55.884Z,4.43
2022-09-23T23:04:03.025Z,4.55
2022-09-23T23:07:09.667Z,4.56
2022-09-23T23:10:16.988Z,3.77
2022-09-23T23:13:23.647Z,3.46
2022-09-23T23:16:33.839Z,3.19
2022-09-23T23:19:40.045Z,3.38
2022-09-23T23:22:46.295Z,3.18
2022-09-23T23:25:52.592Z,3.01
2022-09-23T23:28:59.420Z,3.69
2022-09-23T23:32:07.792Z,4.53
2022-09-23T23:35:14.199Z,4.67
2022-09-23T23:38:20.363Z,4.65
2022-09-23T23:41:26.798Z,4.17
2022-09-23T23:44:34.591Z,4.57
2022-09-23T23:47:42.542Z,4.51
2022-09-23T23:50:54.823Z,3.72
2022-09-23T23:54:01.487Z,4.21
2022-09-23T23:57:08.088Z,4.21
